sensor_id;sensor_type;location;lat;lon;timestamp;P1;durP1;ratioP1;P2;durP2;ratioP2
69736;SDS011;64476;55.004;73.342;2023-04-25T00:01:13;12.43;;;4.53;;
69736;SDS011;64476;55.004;73.342;2023-04-25T00:04:15;8.70;;;4.18;;
69736;SDS011;64476;55.004;73.342;2023-04-25T00:07:18;21.48;;;4.57;;
69736;SDS011;64476;55.004;73.342;2023-04-25T00:10:30;8.18;;;3.88;;
69736;SDS011;64476;55.004;73.342;2023-04-25T00:13:32;6.40;;;3.85;;
69736;SDS011;64476;55.004;73.342;2023-04-25T00:16:41;4.60;;;3.53;;
69736;SDS011;64476;55.004;73.342;2023-04-25T00:19:51;11.05;;;3.92;;
69736;SDS011;64476;55.004;73.342;2023-04-25T00:22:58;18.95;;;4.85;;
69736;SDS011;64476;55.004;73.342;2023-04-25T00:26:00;8.57;;;5.22;;
69736;SDS011;64476;55.004;73.342;2023-04-25T00:29:12;8.45;;;4.93;;
69736;SDS011;64476;55.004;73.342;2023-04-25T00:32:19;12.70;;;5.65;;
69736;SDS011;64476;55.004;73.342;2023-04-25T00:35:21;18.23;;;6.07;;
69736;SDS011;64476;55.004;73.342;2023-04-25T00:38:23;24.05;;;5.53;;
69736;SDS011;64476;55.004;73.342;2023-04-25T00:41:25;10.80;;;5.03;;
69736;SDS011;64476;55.004;73.342;2023-04-25T00:44:28;15.13;;;5.57;;
69736;SDS011;64476;55.004;73.342;2023-04-25T00:47:38;18.25;;;5.95;;
69736;SDS011;64476;55.004;73.342;2023-04-25T00:50:54;16.07;;;5.53;;
69736;SDS011;64476;55.004;73.342;2023-04-25T00:53:58;18.83;;;5.43;;
69736;SDS011;64476;55.004;73.342;2023-04-25T00:57:05;12.98;;;6.00;;
69736;SDS011;64476;55.004;73.342;2023-04-25T01:00:10;21.90;;;6.53;;
69736;SDS011;64476;55.004;73.342;2023-04-25T01:03:17;24.45;;;6.70;;
69736;SDS011;64476;55.004;73.342;2023-04-25T01:06:53;21.67;;;7.40;;
69736;SDS011;64476;55.004;73.342;2023-04-25T01:10:06;45.13;;;7.93;;
69736;SDS011;64476;55.004;73.342;2023-04-25T01:13:08;26.80;;;7.60;;
69736;SDS011;64476;55.004;73.342;2023-04-25T01:16:10;14.88;;;6.13;;
69736;SDS011;64476;55.004;73.342;2023-04-25T01:19:12;26.20;;;7.88;;
69736;SDS011;64476;55.004;73.342;2023-04-25T01:22:21;14.48;;;7.13;;
69736;SDS011;64476;55.004;73.342;2023-04-25T01:25:23;33.67;;;8.25;;
69736;SDS011;64476;55.004;73.342;2023-04-25T01:28:36;32.97;;;7.93;;
69736;SDS011;64476;55.004;73.342;2023-04-25T01:31:43;15.33;;;6.57;;
69736;SDS011;64476;55.004;73.342;2023-04-25T01:34:51;51.63;;;7.93;;
69736;SDS011;64476;55.004;73.342;2023-04-25T01:37:54;33.28;;;7.03;;
69736;SDS011;64476;55.004;73.342;2023-04-25T01:41:00;8.47;;;4.90;;
69736;SDS011;64476;55.004;73.342;2023-04-25T01:44:03;25.85;;;5.50;;
69736;SDS011;64476;55.004;73.342;2023-04-25T01:47:05;15.02;;;5.72;;
69736;SDS011;64476;55.004;73.342;2023-04-25T01:50:07;16.35;;;5.45;;
69736;SDS011;64476;55.004;73.342;2023-04-25T01:53:15;19.80;;;7.13;;
69736;SDS011;64476;55.004;73.342;2023-04-25T01:56:20;10.82;;;5.88;;
69736;SDS011;64476;55.004;73.342;2023-04-25T02:00:00;34.44;;;15.08;;
69736;SDS011;64476;55.004;73.342;2023-04-25T02:03:16;17.90;;;6.50;;
69736;SDS011;64476;55.004;73.342;2023-04-25T02:06:20;14.83;;;6.63;;
69736;SDS011;64476;55.004;73.342;2023-04-25T02:09:23;40.70;;;6.78;;
69736;SDS011;64476;55.004;73.342;2023-04-25T02:12:29;43.97;;;8.10;;
69736;SDS011;64476;55.004;73.342;2023-04-25T02:20:03;26.63;;;5.70;;
69736;SDS011;64476;55.004;73.342;2023-04-25T02:23:06;24.45;;;5.20;;
69736;SDS011;64476;55.004;73.342;2023-04-25T02:26:08;25.85;;;6.05;;
69736;SDS011;64476;55.004;73.342;2023-04-25T02:29:10;27.30;;;5.10;;
69736;SDS011;64476;55.004;73.342;2023-04-25T02:32:18;45.85;;;5.25;;
69736;SDS011;64476;55.004;73.342;2023-04-25T02:38:27;33.70;;;9.30;;
69736;SDS011;64476;55.004;73.342;2023-04-25T02:41:31;14.90;;;6.85;;
69736;SDS011;64476;55.004;73.342;2023-04-25T02:44:51;15.41;;;4.23;;
69736;SDS011;64476;55.004;73.342;2023-04-25T02:48:03;10.48;;;3.90;;
69736;SDS011;64476;55.004;73.342;2023-04-25T02:54:08;43.50;;;10.45;;
69736;SDS011;64476;55.004;73.342;2023-04-25T03:05:45;40.47;;;6.22;;
69736;SDS011;64476;55.004;73.342;2023-04-25T03:08:49;468.15;;;33.33;;
69736;SDS011;64476;55.004;73.342;2023-04-25T03:12:22;19.30;;;4.82;;
69736;SDS011;64476;55.004;73.342;2023-04-25T03:15:38;17.20;;;4.63;;
69736;SDS011;64476;55.004;73.342;2023-04-25T03:19:15;15.55;;;3.70;;
69736;SDS011;64476;55.004;73.342;2023-04-25T03:22:27;31.50;;;4.63;;
69736;SDS011;64476;55.004;73.342;2023-04-25T03:25:34;27.20;;;4.35;;
69736;SDS011;64476;55.004;73.342;2023-04-25T03:28:36;35.75;;;4.72;;
69736;SDS011;64476;55.004;73.342;2023-04-25T03:31:38;38.42;;;5.93;;
69736;SDS011;64476;55.004;73.342;2023-04-25T03:34:39;19.40;;;4.63;;
69736;SDS011;64476;55.004;73.342;2023-04-25T03:37:42;22.50;;;5.35;;
69736;SDS011;64476;55.004;73.342;2023-04-25T03:40:50;26.33;;;5.78;;
69736;SDS011;64476;55.004;73.342;2023-04-25T03:44:00;43.88;;;4.80;;
69736;SDS011;64476;55.004;73.342;2023-04-25T03:55:26;55.72;;;22.88;;
69736;SDS011;64476;55.004;73.342;2023-04-25T03:58:32;43.25;;;8.13;;
69736;SDS011;64476;55.004;73.342;2023-04-25T04:01:45;33.38;;;5.22;;
69736;SDS011;64476;55.004;73.342;2023-04-25T04:04:51;45.20;;;6.15;;
69736;SDS011;64476;55.004;73.342;2023-04-25T04:12:10;52.97;;;5.50;;
69736;SDS011;64476;55.004;73.342;2023-04-25T04:15:15;38.20;;;8.38;;
69736;SDS011;64476;55.004;73.342;2023-04-25T04:18:23;214.30;;;12.52;;
69736;SDS011;64476;55.004;73.342;2023-04-25T04:21:25;212.98;;;13.20;;
69736;SDS011;64476;55.004;73.342;2023-04-25T04:28:42;30.15;;;4.78;;
69736;SDS011;64476;55.004;73.342;2023-04-25T04:32:09;34.97;;;6.45;;
69736;SDS011;64476;55.004;73.342;2023-04-25T04:35:11;21.75;;;3.90;;
69736;SDS011;64476;55.004;73.342;2023-04-25T04:38:13;14.27;;;3.78;;
69736;SDS011;64476;55.004;73.342;2023-04-25T04:41:16;27.17;;;3.70;;
69736;SDS011;64476;55.004;73.342;2023-04-25T04:44:52;27.85;;;3.47;;
69736;SDS011;64476;55.004;73.342;2023-04-25T04:48:12;12.88;;;2.65;;
69736;SDS011;64476;55.004;73.342;2023-04-25T04:52:18;7.32;;;2.42;;
69736;SDS011;64476;55.004;73.342;2023-04-25T04:55:59;10.40;;;2.60;;
69736;SDS011;64476;55.004;73.342;2023-04-25T04:59:27;17.40;;;2.88;;
69736;SDS011;64476;55.004;73.342;2023-04-25T05:03:44;23.05;;;3.30;;
69736;SDS011;64476;55.004;73.342;2023-04-25T05:16:02;6.20;;;2.30;;
69736;SDS011;64476;55.004;73.342;2023-04-25T05:19:24;6.25;;;2.28;;
69736;SDS011;64476;55.004;73.342;2023-04-25T05:22:40;7.03;;;2.40;;
69736;SDS011;64476;55.004;73.342;2023-04-25T05:26:09;10.18;;;2.38;;
69736;SDS011;64476;55.004;73.342;2023-04-25T05:29:51;21.40;;;3.26;;
69736;SDS011;64476;55.004;73.342;2023-04-25T05:33:14;8.18;;;2.58;;
69736;SDS011;64476;55.004;73.342;2023-04-25T05:37:01;4.80;;;2.10;;
69736;SDS011;64476;55.004;73.342;2023-04-25T05:40:06;11.82;;;2.53;;
69736;SDS011;64476;55.004;73.342;2023-04-25T05:43:57;16.63;;;2.63;;
69736;SDS011;64476;55.004;73.342;2023-04-25T05:47:12;9.40;;;2.35;;
69736;SDS011;64476;55.004;73.342;2023-04-25T05:55:11;5.10;;;2.50;;
69736;SDS011;64476;55.004;73.342;2023-04-25T05:58:13;17.35;;;2.67;;
69736;SDS011;64476;55.004;73.342;2023-04-25T06:01:15;10.65;;;2.47;;
69736;SDS011;64476;55.004;73.342;2023-04-25T06:04:23;10.68;;;2.67;;
69736;SDS011;64476;55.004;73.342;2023-04-25T06:07:28;4.95;;;2.50;;
69736;SDS011;64476;55.004;73.342;2023-04-25T06:14:11;7.97;;;2.38;;
69736;SDS011;64476;55.004;73.342;2023-04-25T06:17:21;14.32;;;2.40;;
69736;SDS011;64476;55.004;73.342;2023-04-25T06:20:24;15.65;;;2.45;;
69736;SDS011;64476;55.004;73.342;2023-04-25T06:23:37;13.65;;;2.75;;
69736;SDS011;64476;55.004;73.342;2023-04-25T06:31:09;10.10;;;2.08;;
69736;SDS011;64476;55.004;73.342;2023-04-25T06:34:12;7.28;;;2.15;;
69736;SDS011;64476;55.004;73.342;2023-04-25T06:45:45;10.73;;;2.42;;
69736;SDS011;64476;55.004;73.342;2023-04-25T06:48:47;10.80;;;2.35;;
69736;SDS011;64476;55.004;73.342;2023-04-25T06:51:49;6.65;;;2.13;;
69736;SDS011;64476;55.004;73.342;2023-04-25T06:55:25;10.93;;;1.92;;
69736;SDS011;64476;55.004;73.342;2023-04-25T06:58:41;8.10;;;2.60;;
69736;SDS011;64476;55.004;73.342;2023-04-25T07:02:21;9.10;;;2.55;;
69736;SDS011;64476;55.004;73.342;2023-04-25T07:05:25;9.83;;;2.43;;
69736;SDS011;64476;55.004;73.342;2023-04-25T07:20:43;10.13;;;2.45;;
69736;SDS011;64476;55.004;73.342;2023-04-25T07:27:58;139.55;;;7.25;;
69736;SDS011;64476;55.004;73.342;2023-04-25T07:31:01;17.90;;;2.70;;
69736;SDS011;64476;55.004;73.342;2023-04-25T07:34:04;41.25;;;3.97;;
69736;SDS011;64476;55.004;73.342;2023-04-25T07:37:06;10.60;;;2.30;;
69736;SDS011;64476;55.004;73.342;2023-04-25T07:40:17;24.88;;;2.95;;
69736;SDS011;64476;55.004;73.342;2023-04-25T07:43:25;409.38;;;18.10;;
69736;SDS011;64476;55.004;73.342;2023-04-25T07:46:40;45.00;;;11.93;;
69736;SDS011;64476;55.004;73.342;2023-04-25T07:49:54;9.52;;;2.35;;
69736;SDS011;64476;55.004;73.342;2023-04-25T07:52:58;41.78;;;3.97;;
69736;SDS011;64476;55.004;73.342;2023-04-25T07:56:11;25.80;;;2.83;;
69736;SDS011;64476;55.004;73.342;2023-04-25T07:59:31;12.45;;;2.42;;
69736;SDS011;64476;55.004;73.342;2023-04-25T08:02:41;28.95;;;3.17;;
69736;SDS011;64476;55.004;73.342;2023-04-25T08:05:48;20.23;;;2.60;;
69736;SDS011;64476;55.004;73.342;2023-04-25T08:08:52;14.18;;;3.00;;
69736;SDS011;64476;55.004;73.342;2023-04-25T08:12:28;31.92;;;3.15;;
69736;SDS011;64476;55.004;73.342;2023-04-25T08:15:40;14.90;;;2.45;;
69736;SDS011;64476;55.004;73.342;2023-04-25T08:18:52;29.88;;;3.28;;
69736;SDS011;64476;55.004;73.342;2023-04-25T08:21:54;25.17;;;2.40;;
69736;SDS011;64476;55.004;73.342;2023-04-25T08:25:02;3.80;;;1.88;;
69736;SDS011;64476;55.004;73.342;2023-04-25T08:28:05;9.70;;;2.65;;
69736;SDS011;64476;55.004;73.342;2023-04-25T08:31:07;37.83;;;3.17;;
69736;SDS011;64476;55.004;73.342;2023-04-25T08:34:18;39.03;;;3.15;;
69736;SDS011;64476;55.004;73.342;2023-04-25T08:37:25;41.22;;;4.38;;
69736;SDS011;64476;55.004;73.342;2023-04-25T08:40:37;25.98;;;2.80;;
69736;SDS011;64476;55.004;73.342;2023-04-25T08:43:51;9.95;;;2.22;;
69736;SDS011;64476;55.004;73.342;2023-04-25T08:46:59;12.27;;;2.55;;
69736;SDS011;64476;55.004;73.342;2023-04-25T08:50:06;22.70;;;3.85;;
69736;SDS011;64476;55.004;73.342;2023-04-25T08:53:09;24.90;;;4.07;;
69736;SDS011;64476;55.004;73.342;2023-04-25T08:56:21;150.38;;;8.60;;
69736;SDS011;64476;55.004;73.342;2023-04-25T08:59:51;18.90;;;3.53;;
69736;SDS011;64476;55.004;73.342;2023-04-25T09:02:57;14.52;;;2.90;;
69736;SDS011;64476;55.004;73.342;2023-04-25T09:06:06;27.25;;;3.70;;
69736;SDS011;64476;55.004;73.342;2023-04-25T09:09:10;105.30;;;7.63;;
69736;SDS011;64476;55.004;73.342;2023-04-25T09:12:13;13.00;;;3.33;;
69736;SDS011;64476;55.004;73.342;2023-04-25T09:15:26;24.93;;;2.93;;
69736;SDS011;64476;55.004;73.342;2023-04-25T09:18:57;11.30;;;2.83;;
69736;SDS011;64476;55.004;73.342;2023-04-25T09:22:10;12.13;;;2.90;;
69736;SDS011;64476;55.004;73.342;2023-04-25T09:25:22;20.23;;;3.23;;
69736;SDS011;64476;55.004;73.342;2023-04-25T09:28:26;9.13;;;4.45;;
69736;SDS011;64476;55.004;73.342;2023-04-25T09:31:28;9.32;;;4.03;;
69736;SDS011;64476;55.004;73.342;2023-04-25T09:34:38;12.55;;;3.83;;
69736;SDS011;64476;55.004;73.342;2023-04-25T09:37:42;12.80;;;3.78;;
69736;SDS011;64476;55.004;73.342;2023-04-25T09:41:38;11.15;;;3.35;;
69736;SDS011;64476;55.004;73.342;2023-04-25T09:44:44;14.90;;;4.15;;
69736;SDS011;64476;55.004;73.342;2023-04-25T09:48:05;9.00;;;3.13;;
69736;SDS011;64476;55.004;73.342;2023-04-25T09:51:11;7.05;;;3.80;;
69736;SDS011;64476;55.004;73.342;2023-04-25T09:54:20;18.55;;;4.18;;
69736;SDS011;64476;55.004;73.342;2023-04-25T09:57:24;44.72;;;4.70;;
69736;SDS011;64476;55.004;73.342;2023-04-25T10:00:29;14.68;;;3.40;;
69736;SDS011;64476;55.004;73.342;2023-04-25T10:03:38;28.27;;;4.57;;
69736;SDS011;64476;55.004;73.342;2023-04-25T10:06:54;26.00;;;6.18;;
69736;SDS011;64476;55.004;73.342;2023-04-25T10:10:03;39.13;;;6.95;;
69736;SDS011;64476;55.004;73.342;2023-04-25T10:17:20;15.75;;;2.95;;
69736;SDS011;64476;55.004;73.342;2023-04-25T10:24:37;12.00;;;3.35;;
69736;SDS011;64476;55.004;73.342;2023-04-25T10:27:40;8.17;;;2.60;;
69736;SDS011;64476;55.004;73.342;2023-04-25T10:31:01;6.43;;;2.40;;
69736;SDS011;64476;55.004;73.342;2023-04-25T10:34:10;15.40;;;2.50;;
69736;SDS011;64476;55.004;73.342;2023-04-25T10:37:12;9.75;;;2.92;;
69736;SDS011;64476;55.004;73.342;2023-04-25T10:40:14;23.00;;;7.00;;
69736;SDS011;64476;55.004;73.342;2023-04-25T10:43:36;7.57;;;4.50;;
69736;SDS011;64476;55.004;73.342;2023-04-25T10:47:22;16.83;;;3.25;;
69736;SDS011;64476;55.004;73.342;2023-04-25T10:50:51;6.10;;;1.88;;
69736;SDS011;64476;55.004;73.342;2023-04-25T10:54:28;17.95;;;2.45;;
69736;SDS011;64476;55.004;73.342;2023-04-25T11:01:15;16.73;;;3.17;;
69736;SDS011;64476;55.004;73.342;2023-04-25T11:04:30;8.80;;;2.50;;
69736;SDS011;64476;55.004;73.342;2023-04-25T11:07:42;27.80;;;13.25;;
69736;SDS011;64476;55.004;73.342;2023-04-25T11:11:16;25.25;;;11.13;;
69736;SDS011;64476;55.004;73.342;2023-04-25T11:14:19;38.03;;;4.93;;
69736;SDS011;64476;55.004;73.342;2023-04-25T11:20:26;7.65;;;2.88;;
69736;SDS011;64476;55.004;73.342;2023-04-25T11:23:44;11.43;;;2.45;;
69736;SDS011;64476;55.004;73.342;2023-04-25T11:27:01;21.92;;;2.92;;
69736;SDS011;64476;55.004;73.342;2023-04-25T11:30:15;18.60;;;3.70;;
69736;SDS011;64476;55.004;73.342;2023-04-25T11:33:22;19.60;;;2.83;;
69736;SDS011;64476;55.004;73.342;2023-04-25T11:36:26;22.60;;;3.78;;
69736;SDS011;64476;55.004;73.342;2023-04-25T11:39:32;18.95;;;2.85;;
69736;SDS011;64476;55.004;73.342;2023-04-25T11:43:06;11.80;;;2.97;;
69736;SDS011;64476;55.004;73.342;2023-04-25T11:46:08;20.92;;;3.88;;
69736;SDS011;64476;55.004;73.342;2023-04-25T11:49:09;17.48;;;4.70;;
69736;SDS011;64476;55.004;73.342;2023-04-25T11:52:12;8.20;;;4.55;;
69736;SDS011;64476;55.004;73.342;2023-04-25T11:55:14;17.55;;;4.10;;
69736;SDS011;64476;55.004;73.342;2023-04-25T12:01:58;44.38;;;4.50;;
69736;SDS011;64476;55.004;73.342;2023-04-25T12:05:05;5.03;;;3.13;;
69736;SDS011;64476;55.004;73.342;2023-04-25T12:11:22;11.00;;;3.77;;
69736;SDS011;64476;55.004;73.342;2023-04-25T12:14:34;32.03;;;4.20;;
69736;SDS011;64476;55.004;73.342;2023-04-25T12:17:39;10.63;;;2.80;;
69736;SDS011;64476;55.004;73.342;2023-04-25T12:20:41;11.70;;;2.63;;
69736;SDS011;64476;55.004;73.342;2023-04-25T12:23:44;10.93;;;3.47;;
69736;SDS011;64476;55.004;73.342;2023-04-25T12:29:56;21.70;;;4.95;;
69736;SDS011;64476;55.004;73.342;2023-04-25T12:33:04;8.45;;;4.40;;
69736;SDS011;64476;55.004;73.342;2023-04-25T12:36:07;18.58;;;7.72;;
69736;SDS011;64476;55.004;73.342;2023-04-25T12:39:16;40.83;;;14.55;;
69736;SDS011;64476;55.004;73.342;2023-04-25T12:42:22;15.50;;;9.07;;
69736;SDS011;64476;55.004;73.342;2023-04-25T12:45:27;16.07;;;5.17;;
69736;SDS011;64476;55.004;73.342;2023-04-25T12:48:42;32.25;;;4.57;;
69736;SDS011;64476;55.004;73.342;2023-04-25T12:51:45;31.07;;;4.53;;
69736;SDS011;64476;55.004;73.342;2023-04-25T12:54:51;17.73;;;4.18;;
69736;SDS011;64476;55.004;73.342;2023-04-25T12:57:53;35.15;;;3.38;;
69736;SDS011;64476;55.004;73.342;2023-04-25T13:00:54;13.27;;;2.78;;
69736;SDS011;64476;55.004;73.342;2023-04-25T13:03:56;8.55;;;2.85;;
69736;SDS011;64476;55.004;73.342;2023-04-25T13:07:04;14.93;;;3.10;;
69736;SDS011;64476;55.004;73.342;2023-04-25T13:10:06;16.88;;;3.45;;
69736;SDS011;64476;55.004;73.342;2023-04-25T13:13:11;25.90;;;3.10;;
69736;SDS011;64476;55.004;73.342;2023-04-25T13:16:13;25.58;;;3.08;;
69736;SDS011;64476;55.004;73.342;2023-04-25T13:19:15;25.20;;;2.90;;
69736;SDS011;64476;55.004;73.342;2023-04-25T13:22:26;10.23;;;3.47;;
69736;SDS011;64476;55.004;73.342;2023-04-25T13:25:28;15.13;;;3.97;;
69736;SDS011;64476;55.004;73.342;2023-04-25T13:28:35;28.33;;;4.75;;
69736;SDS011;64476;55.004;73.342;2023-04-25T13:31:37;20.70;;;5.50;;
69736;SDS011;64476;55.004;73.342;2023-04-25T13:34:53;12.46;;;4.46;;
69736;SDS011;64476;55.004;73.342;2023-04-25T13:38:15;24.50;;;6.23;;
69736;SDS011;64476;55.004;73.342;2023-04-25T13:41:25;14.98;;;4.10;;
69736;SDS011;64476;55.004;73.342;2023-04-25T13:44:27;21.13;;;4.85;;
69736;SDS011;64476;55.004;73.342;2023-04-25T13:47:28;7.27;;;3.80;;
69736;SDS011;64476;55.004;73.342;2023-04-25T13:50:35;13.97;;;4.13;;
69736;SDS011;64476;55.004;73.342;2023-04-25T13:53:37;16.27;;;3.72;;
69736;SDS011;64476;55.004;73.342;2023-04-25T13:56:40;27.30;;;4.10;;
69736;SDS011;64476;55.004;73.342;2023-04-25T13:59:51;11.71;;;3.47;;
69736;SDS011;64476;55.004;73.342;2023-04-25T14:03:04;18.20;;;3.80;;
69736;SDS011;64476;55.004;73.342;2023-04-25T14:06:08;8.60;;;4.00;;
69736;SDS011;64476;55.004;73.342;2023-04-25T14:09:09;13.50;;;3.80;;
69736;SDS011;64476;55.004;73.342;2023-04-25T14:12:11;17.95;;;4.70;;
69736;SDS011;64476;55.004;73.342;2023-04-25T14:15:16;16.00;;;4.35;;
69736;SDS011;64476;55.004;73.342;2023-04-25T14:18:20;14.98;;;5.03;;
69736;SDS011;64476;55.004;73.342;2023-04-25T14:21:22;14.18;;;4.60;;
69736;SDS011;64476;55.004;73.342;2023-04-25T14:24:24;33.90;;;4.63;;
69736;SDS011;64476;55.004;73.342;2023-04-25T14:27:26;18.15;;;4.45;;
69736;SDS011;64476;55.004;73.342;2023-04-25T14:34:06;30.00;;;6.28;;
69736;SDS011;64476;55.004;73.342;2023-04-25T14:37:08;31.75;;;6.20;;
69736;SDS011;64476;55.004;73.342;2023-04-25T14:40:20;56.30;;;7.17;;
69736;SDS011;64476;55.004;73.342;2023-04-25T14:43:24;38.97;;;6.80;;
69736;SDS011;64476;55.004;73.342;2023-04-25T14:46:33;46.20;;;8.27;;
69736;SDS011;64476;55.004;73.342;2023-04-25T14:49:35;29.40;;;9.13;;
69736;SDS011;64476;55.004;73.342;2023-04-25T14:52:39;54.28;;;12.55;;
69736;SDS011;64476;55.004;73.342;2023-04-25T14:55:43;32.92;;;9.40;;
69736;SDS011;64476;55.004;73.342;2023-04-25T14:58:45;24.10;;;9.32;;
69736;SDS011;64476;55.004;73.342;2023-04-25T15:01:47;26.55;;;9.40;;
69736;SDS011;64476;55.004;73.342;2023-04-25T15:04:51;30.67;;;11.35;;
69736;SDS011;64476;55.004;73.342;2023-04-25T15:07:54;37.67;;;11.25;;
69736;SDS011;64476;55.004;73.342;2023-04-25T15:10:56;31.20;;;11.32;;
69736;SDS011;64476;55.004;73.342;2023-04-25T15:13:58;31.50;;;11.13;;
69736;SDS011;64476;55.004;73.342;2023-04-25T15:17:10;63.90;;;12.90;;
69736;SDS011;64476;55.004;73.342;2023-04-25T15:20:14;52.15;;;16.33;;
69736;SDS011;64476;55.004;73.342;2023-04-25T15:23:17;52.78;;;14.73;;
69736;SDS011;64476;55.004;73.342;2023-04-25T15:26:29;28.13;;;11.00;;
69736;SDS011;64476;55.004;73.342;2023-04-25T15:29:51;49.66;;;11.48;;
69736;SDS011;64476;55.004;73.342;2023-04-25T15:32:54;65.88;;;14.13;;
69736;SDS011;64476;55.004;73.342;2023-04-25T15:35:57;45.00;;;17.48;;
69736;SDS011;64476;55.004;73.342;2023-04-25T15:38:59;37.30;;;15.77;;
69736;SDS011;64476;55.004;73.342;2023-04-25T15:42:01;53.40;;;15.73;;
69736;SDS011;64476;55.004;73.342;2023-04-25T15:52:22;51.25;;;17.25;;
69736;SDS011;64476;55.004;73.342;2023-04-25T15:55:28;55.10;;;16.53;;
69736;SDS011;64476;55.004;73.342;2023-04-25T15:58:31;51.30;;;16.17;;
69736;SDS011;64476;55.004;73.342;2023-04-25T16:01:43;53.83;;;15.80;;
69736;SDS011;64476;55.004;73.342;2023-04-25T16:04:51;41.14;;;13.46;;
69736;SDS011;64476;55.004;73.342;2023-04-25T16:07:54;28.25;;;12.48;;
69736;SDS011;64476;55.004;73.342;2023-04-25T16:11:06;41.05;;;13.63;;
69736;SDS011;64476;55.004;73.342;2023-04-25T16:14:08;41.72;;;14.30;;
69736;SDS011;64476;55.004;73.342;2023-04-25T16:17:10;35.10;;;13.00;;
69736;SDS011;64476;55.004;73.342;2023-04-25T16:20:12;27.92;;;12.70;;
69736;SDS011;64476;55.004;73.342;2023-04-25T16:23:14;46.97;;;13.93;;
69736;SDS011;64476;55.004;73.342;2023-04-25T16:26:27;37.72;;;12.57;;
69736;SDS011;64476;55.004;73.342;2023-04-25T16:29:28;24.88;;;13.32;;
69736;SDS011;64476;55.004;73.342;2023-04-25T16:32:30;37.67;;;15.15;;
69736;SDS011;64476;55.004;73.342;2023-04-25T16:36:10;44.83;;;15.27;;
69736;SDS011;64476;55.004;73.342;2023-04-25T16:39:15;37.83;;;14.57;;
69736;SDS011;64476;55.004;73.342;2023-04-25T16:42:18;31.70;;;14.65;;
69736;SDS011;64476;55.004;73.342;2023-04-25T16:45:20;36.20;;;14.00;;
69736;SDS011;64476;55.004;73.342;2023-04-25T16:48:22;50.72;;;16.67;;
69736;SDS011;64476;55.004;73.342;2023-04-25T16:51:24;50.03;;;17.02;;
69736;SDS011;64476;55.004;73.342;2023-04-25T16:54:36;45.25;;;17.83;;
69736;SDS011;64476;55.004;73.342;2023-04-25T16:57:40;44.28;;;16.60;;
69736;SDS011;64476;55.004;73.342;2023-04-25T17:00:50;33.30;;;16.90;;
69736;SDS011;64476;55.004;73.342;2023-04-25T17:03:52;52.30;;;15.85;;
69736;SDS011;64476;55.004;73.342;2023-04-25T17:07:03;46.22;;;15.13;;
69736;SDS011;64476;55.004;73.342;2023-04-25T17:10:05;62.35;;;15.93;;
69736;SDS011;64476;55.004;73.342;2023-04-25T17:13:07;45.92;;;14.55;;
69736;SDS011;64476;55.004;73.342;2023-04-25T17:16:09;46.80;;;13.80;;
69736;SDS011;64476;55.004;73.342;2023-04-25T17:19:21;63.78;;;13.80;;
69736;SDS011;64476;55.004;73.342;2023-04-25T17:22:29;48.17;;;13.60;;
69736;SDS011;64476;55.004;73.342;2023-04-25T17:25:31;50.20;;;13.90;;
69736;SDS011;64476;55.004;73.342;2023-04-25T17:28:33;74.63;;;14.43;;
69736;SDS011;64476;55.004;73.342;2023-04-25T17:31:35;72.68;;;13.02;;
69736;SDS011;64476;55.004;73.342;2023-04-25T17:34:39;101.80;;;13.38;;
69736;SDS011;64476;55.004;73.342;2023-04-25T17:41:15;60.03;;;12.13;;
69736;SDS011;64476;55.004;73.342;2023-04-25T17:44:17;67.82;;;10.77;;
69736;SDS011;64476;55.004;73.342;2023-04-25T17:47:29;40.75;;;9.45;;
69736;SDS011;64476;55.004;73.342;2023-04-25T17:50:32;47.13;;;9.17;;
69736;SDS011;64476;55.004;73.342;2023-04-25T17:53:34;39.67;;;9.45;;
69736;SDS011;64476;55.004;73.342;2023-04-25T17:56:37;18.80;;;7.67;;
69736;SDS011;64476;55.004;73.342;2023-04-25T17:59:40;33.55;;;6.90;;
69736;SDS011;64476;55.004;73.342;2023-04-25T18:02:53;38.05;;;7.82;;
69736;SDS011;64476;55.004;73.342;2023-04-25T18:06:05;27.50;;;8.07;;
69736;SDS011;64476;55.004;73.342;2023-04-25T18:09:11;36.40;;;7.18;;
69736;SDS011;64476;55.004;73.342;2023-04-25T18:12:18;27.95;;;7.10;;
69736;SDS011;64476;55.004;73.342;2023-04-25T18:15:20;22.53;;;7.60;;
69736;SDS011;64476;55.004;73.342;2023-04-25T18:18:24;22.85;;;8.00;;
69736;SDS011;64476;55.004;73.342;2023-04-25T18:21:58;32.28;;;7.07;;
69736;SDS011;64476;55.004;73.342;2023-04-25T18:25:10;27.20;;;7.40;;
69736;SDS011;64476;55.004;73.342;2023-04-25T18:28:50;27.50;;;7.20;;
69736;SDS011;64476;55.004;73.342;2023-04-25T18:32:02;30.40;;;6.88;;
69736;SDS011;64476;55.004;73.342;2023-04-25T18:35:05;22.38;;;6.78;;
69736;SDS011;64476;55.004;73.342;2023-04-25T18:38:09;21.23;;;6.28;;
69736;SDS011;64476;55.004;73.342;2023-04-25T18:41:11;31.20;;;6.73;;
69736;SDS011;64476;55.004;73.342;2023-04-25T18:44:15;16.52;;;6.45;;
69736;SDS011;64476;55.004;73.342;2023-04-25T18:47:17;32.88;;;8.70;;
69736;SDS011;64476;55.004;73.342;2023-04-25T18:50:28;18.67;;;6.30;;
69736;SDS011;64476;55.004;73.342;2023-04-25T18:53:32;15.18;;;5.32;;
69736;SDS011;64476;55.004;73.342;2023-04-25T18:56:40;20.73;;;6.43;;
69736;SDS011;64476;55.004;73.342;2023-04-25T18:59:51;19.20;;;5.45;;
69736;SDS011;64476;55.004;73.342;2023-04-25T19:02:53;22.38;;;5.25;;
69736;SDS011;64476;55.004;73.342;2023-04-25T19:05:55;14.80;;;4.80;;
69736;SDS011;64476;55.004;73.342;2023-04-25T19:08:59;11.43;;;5.25;;
69736;SDS011;64476;55.004;73.342;2023-04-25T19:12:12;8.53;;;3.70;;
69736;SDS011;64476;55.004;73.342;2023-04-25T19:15:25;10.30;;;4.72;;
69736;SDS011;64476;55.004;73.342;2023-04-25T19:18:26;10.02;;;3.78;;
69736;SDS011;64476;55.004;73.342;2023-04-25T19:21:31;10.15;;;3.40;;
69736;SDS011;64476;55.004;73.342;2023-04-25T19:24:33;5.68;;;3.30;;
69736;SDS011;64476;55.004;73.342;2023-04-25T19:27:35;9.02;;;3.35;;
69736;SDS011;64476;55.004;73.342;2023-04-25T19:30:46;5.90;;;3.10;;
69736;SDS011;64476;55.004;73.342;2023-04-25T19:33:48;7.20;;;3.60;;
69736;SDS011;64476;55.004;73.342;2023-04-25T19:36:59;13.55;;;2.95;;
69736;SDS011;64476;55.004;73.342;2023-04-25T19:40:01;6.93;;;3.22;;
69736;SDS011;64476;55.004;73.342;2023-04-25T19:43:05;6.82;;;3.35;;
69736;SDS011;64476;55.004;73.342;2023-04-25T19:46:07;5.00;;;2.90;;
69736;SDS011;64476;55.004;73.342;2023-04-25T19:49:14;4.88;;;2.97;;
69736;SDS011;64476;55.004;73.342;2023-04-25T19:52:17;9.35;;;3.30;;
69736;SDS011;64476;55.004;73.342;2023-04-25T19:55:20;9.90;;;3.00;;
69736;SDS011;64476;55.004;73.342;2023-04-25T19:58:31;8.68;;;3.08;;
69736;SDS011;64476;55.004;73.342;2023-04-25T20:02:10;7.28;;;2.90;;
69736;SDS011;64476;55.004;73.342;2023-04-25T20:05:13;12.87;;;3.00;;
69736;SDS011;64476;55.004;73.342;2023-04-25T20:08:16;8.20;;;2.90;;
69736;SDS011;64476;55.004;73.342;2023-04-25T20:11:18;5.70;;;3.72;;
69736;SDS011;64476;55.004;73.342;2023-04-25T20:14:20;13.00;;;4.03;;
69736;SDS011;64476;55.004;73.342;2023-04-25T20:17:21;7.95;;;3.30;;
69736;SDS011;64476;55.004;73.342;2023-04-25T20:20:24;13.80;;;4.22;;
69736;SDS011;64476;55.004;73.342;2023-04-25T20:23:26;8.95;;;3.72;;
69736;SDS011;64476;55.004;73.342;2023-04-25T20:26:28;5.70;;;3.83;;